Time;durP1;ratioP1;P1;durP2;ratioP2;P2;SDS_P1;SDS_P2;PMS_P1;PMS_P2;Temp;Humidity;BMP_temperature;BMP_pressure;BME280_temperature;BME280_humidity;BME280_pressure;Samples;Min_cycle;Max_cycle;Signal;HPM_P1;HPM_P2
2023/06/17 00:01:35;;;;;;;9.68;8.68;;;25.10;54.50;;;;;;4232035;27;20144;-51
2023/06/17 00:04:16;;;;;;;;;;;25.00;54.50;;;;;;4209579;28;20055;-52
2023/06/17 00:06:57;;;;;;;11.07;8.93;;;25.00;54.30;;;;;;4192215;28;19927;-52
2023/06/17 00:09:44;;;;;;;14.88;9.23;;;25.00;54.30;;;;;;4207429;28;20059;-49
2023/06/17 00:12:25;;;;;;;11.90;9.18;;;25.00;54.70;;;;;;4225218;27;20534;-51
2023/06/17 00:15:07;;;;;;;16.60;9.55;;;25.00;55.00;;;;;;4234905;27;20062;-50
2023/06/17 00:17:50;;;;;;;13.63;8.85;;;25.00;55.00;;;;;;4242823;27;20101;-50
2023/06/17 00:20:32;;;;;;;12.20;9.85;;;25.00;55.10;;;;;;4240720;27;20408;-50
2023/06/17 00:23:13;;;;;;;11.75;9.25;;;25.00;55.10;;;;;;4223149;28;20452;-51
2023/06/17 00:25:55;;;;;;;13.43;9.40;;;25.00;55.10;;;;;;4208740;28;20059;-47
2023/06/17 00:28:36;;;;;;;12.20;8.93;;;25.00;55.20;;;;;;4209215;28;20055;-46
2023/06/17 00:31:17;;;;;;;15.85;8.90;;;25.00;55.10;;;;;;4210247;28;20128;-50
2023/06/17 00:33:58;;;;;;;;;;;24.90;55.90;;;;;;4211072;27;20498;-50
2023/06/17 00:36:39;;;;;;;12.57;9.38;;;24.90;55.00;;;;;;4241708;27;19926;-53
2023/06/17 00:39:20;;;;;;;12.65;8.75;;;24.90;54.80;;;;;;4241527;27;20135;-52
2023/06/17 00:42:03;;;;;;;12.50;9.93;;;24.90;55.10;;;;;;4219855;28;20054;-54
2023/06/17 00:44:43;;;;;;;13.80;9.85;;;24.90;55.30;;;;;;4207502;28;20067;-52
2023/06/17 00:47:25;;;;;;;;;;;24.90;55.30;;;;;;4207591;28;20170;-49
2023/06/17 00:50:09;;;;;;;12.52;9.85;;;24.90;55.90;;;;;;4211121;28;20487;-52
2023/06/17 00:52:53;;;;;;;13.57;9.95;;;24.90;55.20;;;;;;4212861;28;20047;-50
2023/06/17 00:55:35;;;;;;;14.10;9.70;;;24.90;55.40;;;;;;4217034;28;20054;-49
2023/06/17 00:58:18;;;;;;;14.43;9.98;;;24.80;55.60;;;;;;4225342;28;20410;-50
2023/06/17 01:01:00;;;;;;;14.40;11.13;;;24.80;55.60;;;;;;4225452;28;20561;-49
2023/06/17 01:03:41;;;;;;;16.90;10.70;;;24.80;55.80;;;;;;4208611;28;20059;-51
2023/06/17 01:06:33;;;;;;;13.80;11.50;;;24.80;55.70;;;;;;4223749;27;20390;-51
2023/06/17 01:09:19;;;;;;;13.60;10.98;;;24.80;55.80;;;;;;4241989;27;20058;-50
2023/06/17 01:12:01;;;;;;;13.40;10.90;;;24.80;55.70;;;;;;4228017;28;20058;-54
2023/06/17 01:14:43;;;;;;;14.13;11.77;;;24.80;55.70;;;;;;4234218;27;20446;-53
2023/06/17 01:17:26;;;;;;;12.80;11.48;;;24.80;55.70;;;;;;4240925;27;20054;-48
2023/06/17 01:20:08;;;;;;;13.07;10.73;;;24.80;55.70;;;;;;4235511;27;20402;-52
2023/06/17 01:22:52;;;;;;;18.08;10.85;;;24.80;55.70;;;;;;4210342;28;20124;-54
2023/06/17 01:25:35;;;;;;;15.02;11.10;;;24.80;55.80;;;;;;4211914;28;20059;-50
2023/06/17 01:28:19;;;;;;;11.40;10.20;;;24.80;55.90;;;;;;4217953;28;20069;-52
2023/06/17 01:31:00;;;;;;;12.27;9.77;;;24.80;55.90;;;;;;4228688;27;20135;-50
2023/06/17 01:33:45;;;;;;;17.60;11.13;;;24.80;55.90;;;;;;4232793;27;20054;-51
2023/06/17 01:36:33;;;;;;;11.40;9.73;;;24.80;56.80;;;;;;4245368;27;20169;-55
2023/06/17 01:39:19;;;;;;;11.05;9.23;;;24.80;56.10;;;;;;4229719;27;20570;-54
2023/06/17 01:42:05;;;;;;;16.50;9.45;;;24.80;56.10;;;;;;4226191;28;20494;-54
2023/06/17 01:44:48;;;;;;;18.80;9.38;;;24.80;56.10;;;;;;4211728;28;20399;-54
2023/06/17 01:47:29;;;;;;;12.48;9.30;;;24.80;56.10;;;;;;4211166;28;20047;-54
2023/06/17 01:50:11;;;;;;;13.05;8.95;;;24.80;56.10;;;;;;4225537;28;20471;-53
2023/06/17 01:52:52;;;;;;;16.48;9.15;;;24.70;56.10;;;;;;4228136;27;20051;-53
2023/06/17 01:55:33;;;;;;;;;;;24.70;56.10;;;;;;4245449;27;20054;-53
2023/06/17 01:58:16;;;;;;;16.10;9.32;;;24.70;56.10;;;;;;4236197;27;20385;-55
2023/06/17 02:00:56;;;;;;;14.85;9.50;;;24.70;56.10;;;;;;4226640;28;20118;-51
2023/06/17 02:03:38;;;;;;;10.57;9.45;;;24.70;56.20;;;;;;4227998;27;20108;-52
2023/06/17 02:06:19;;;;;;;13.68;9.73;;;24.70;56.40;;;;;;4225412;27;20058;-53
2023/06/17 02:09:01;;;;;;;12.00;9.70;;;24.70;56.40;;;;;;4227682;27;20108;-52
2023/06/17 02:11:43;;;;;;;14.20;9.40;;;24.70;56.50;;;;;;4227886;27;20047;-49
2023/06/17 02:14:26;;;;;;;14.23;9.90;;;24.60;56.50;;;;;;4230057;27;20111;-50
2023/06/17 02:17:18;;;;;;;12.88;10.27;;;24.60;56.60;;;;;;4244380;27;20058;-46
2023/06/17 02:20:01;;;;;;;11.75;9.52;;;24.60;56.60;;;;;;4211750;28;20051;-48
2023/06/17 02:22:42;;;;;;;15.70;9.90;;;24.60;56.70;;;;;;4209453;28;20055;-49
2023/06/17 02:25:23;;;;;;;15.60;11.18;;;24.60;56.70;;;;;;4210400;28;20054;-48
2023/06/17 02:28:04;;;;;;;11.40;9.00;;;24.60;56.70;;;;;;4212895;28;20046;-52
2023/06/17 02:30:47;;;;;;;11.10;9.48;;;24.60;56.70;;;;;;4227209;27;20054;-48
2023/06/17 02:33:29;;;;;;;12.77;10.18;;;24.60;57.50;;;;;;4221556;28;20120;-48
2023/06/17 02:36:11;;;;;;;12.60;9.32;;;24.60;56.90;;;;;;4226494;27;20501;-49
2023/06/17 02:38:54;;;;;;;10.73;9.52;;;24.50;56.80;;;;;;4209439;28;20051;-50
2023/06/17 02:41:35;;;;;;;10.23;9.15;;;24.60;56.90;;;;;;4209209;28;20059;-50
2023/06/17 02:44:16;;;;;;;15.57;10.35;;;24.50;56.80;;;;;;4212303;28;20237;-50
2023/06/17 02:46:58;;;;;;;11.55;9.63;;;24.50;56.90;;;;;;4225030;28;20051;-50
2023/06/17 02:49:39;;;;;;;14.43;10.32;;;24.50;56.80;;;;;;4209043;28;20074;-47
2023/06/17 02:52:20;;;;;;;;;;;24.50;56.80;;;;;;4210121;28;20055;-53
2023/06/17 02:55:02;;;;;;;;;;;24.50;56.80;;;;;;4225176;27;19927;-53
2023/06/17 02:57:44;;;;;;;14.50;11.15;;;24.50;56.60;;;;;;4208863;28;19930;-51
2023/06/17 03:00:25;;;;;;;;;;;24.50;56.70;;;;;;4194210;28;20040;-53
2023/06/17 03:03:07;;;;;;;;;;;24.40;56.70;;;;;;4243775;27;19930;-52
2023/06/17 03:05:48;;;;;;;12.95;10.60;;;24.40;56.60;;;;;;4243107;27;19926;-55
2023/06/17 03:08:31;;;;;;;19.08;11.02;;;24.40;56.70;;;;;;4227980;27;20180;-54
2023/06/17 03:11:15;;;;;;;12.98;10.43;;;24.40;57.70;;;;;;4209811;28;20075;-53
2023/06/17 03:13:57;;;;;;;10.52;9.43;;;24.40;57.10;;;;;;4236584;27;20127;-53
2023/06/17 03:16:44;;;;;;;16.65;9.55;;;24.40;57.10;;;;;;4241884;27;20054;-51
2023/06/17 03:19:27;;;;;;;11.38;9.77;;;24.40;57.20;;;;;;4208503;28;20054;-49
2023/06/17 03:22:08;;;;;;;14.50;9.88;;;24.40;57.30;;;;;;4213489;28;20185;-54
2023/06/17 03:24:52;;;;;;;13.60;10.00;;;24.40;58.10;;;;;;4208654;28;20063;-53
2023/06/17 03:27:34;;;;;;;;;;;24.40;57.30;;;;;;4221457;27;20054;-53
2023/06/17 03:30:16;;;;;;;12.95;10.40;;;24.30;57.20;;;;;;4225309;28;19931;-53
2023/06/17 03:32:57;;;;;;;;;;;24.30;57.10;;;;;;4224545;28;20111;-51
2023/06/17 03:35:39;;;;;;;14.07;9.27;;;24.30;57.10;;;;;;4208594;28;20061;-53
2023/06/17 03:38:21;;;;;;;11.98;9.90;;;24.30;57.10;;;;;;4209298;28;20070;-53
2023/06/17 03:41:02;;;;;;;16.60;11.05;;;24.30;57.30;;;;;;4223820;27;20185;-51
2023/06/17 03:43:43;;;;;;;;;;;24.30;57.30;;;;;;4225660;28;20054;-52
2023/06/17 03:46:25;;;;;;;13.48;10.15;;;24.30;57.30;;;;;;4207779;28;19931;-51
2023/06/17 03:49:06;;;;;;;12.50;10.50;;;24.30;57.20;;;;;;4221913;27;20141;-50
2023/06/17 03:51:49;;;;;;;15.52;10.50;;;24.30;57.40;;;;;;4241688;27;20106;-53
2023/06/17 03:54:30;;;;;;;12.52;11.05;;;24.30;57.50;;;;;;4242671;27;20123;-53
2023/06/17 03:57:12;;;;;;;13.02;10.40;;;24.30;57.50;;;;;;4228607;27;20099;-54
2023/06/17 03:59:53;;;;;;;10.88;9.77;;;24.30;57.50;;;;;;4242179;27;20053;-54
2023/06/17 04:02:34;;;;;;;16.48;10.82;;;24.30;57.50;;;;;;4242139;27;20050;-50
2023/06/17 04:05:15;;;;;;;13.45;10.93;;;24.30;57.60;;;;;;4240489;27;20095;-49
2023/06/17 04:07:58;;;;;;;13.52;11.20;;;24.30;57.60;;;;;;4207848;28;20059;-51
2023/06/17 04:10:40;;;;;;;14.57;11.50;;;24.30;57.70;;;;;;4234327;27;20066;-52
2023/06/17 04:13:21;;;;;;;18.40;11.32;;;24.30;57.60;;;;;;4243073;27;20058;-52
2023/06/17 04:16:07;;;;;;;12.77;11.48;;;24.30;57.60;;;;;;4219883;28;20100;-55
2023/06/17 04:18:48;;;;;;;15.18;12.43;;;24.30;57.70;;;;;;4207739;28;20355;-52
2023/06/17 04:21:29;;;;;;;16.65;12.82;;;24.30;57.70;;;;;;4208749;28;20067;-53
2023/06/17 04:24:11;;;;;;;;;;;24.30;57.70;;;;;;4236820;27;20509;-55
2023/06/17 04:26:54;;;;;;;15.02;12.20;;;24.20;57.60;;;;;;4223161;28;19966;-50
2023/06/17 04:29:37;;;;;;;15.02;12.30;;;24.20;57.60;;;;;;4207212;28;20063;-50
2023/06/17 04:32:19;;;;;;;15.38;13.02;;;24.20;57.80;;;;;;4207662;28;20058;-52
2023/06/17 04:35:03;;;;;;;14.50;12.88;;;24.20;58.60;;;;;;4209857;28;20065;-58
2023/06/17 04:37:53;;;;;;;15.13;12.40;;;24.30;58.10;;;;;;4207231;28;20124;-49
2023/06/17 04:40:36;;;;;;;18.23;12.52;;;24.20;58.30;;;;;;4207569;28;20069;-49
2023/06/17 04:43:18;;;;;;;17.13;13.32;;;24.30;58.20;;;;;;4207634;28;20137;-54
2023/06/17 04:45:58;;;;;;;19.30;12.95;;;24.30;58.10;;;;;;4208873;28;20051;-58
2023/06/17 04:48:40;;;;;;;16.42;12.35;;;24.30;58.70;;;;;;4222128;28;20051;-52
2023/06/17 04:51:21;;;;;;;15.30;12.45;;;24.30;58.00;;;;;;4224376;27;20051;-52
2023/06/17 04:54:05;;;;;;;14.45;12.95;;;24.30;58.00;;;;;;4218249;28;20051;-51
2023/06/17 04:56:48;;;;;;;14.40;12.82;;;24.30;58.00;;;;;;4224548;27;20047;-47
2023/06/17 04:59:29;;;;;;;16.63;12.70;;;24.30;58.00;;;;;;4240890;27;20069;-51
2023/06/17 05:02:13;;;;;;;18.35;14.15;;;24.30;57.90;;;;;;4241303;27;20498;-50
2023/06/17 05:04:54;;;;;;;15.50;13.20;;;24.30;58.00;;;;;;4222293;27;20046;-49
2023/06/17 05:07:36;;;;;;;17.23;13.40;;;24.30;58.00;;;;;;4228198;28;20051;-51
2023/06/17 05:10:17;;;;;;;16.60;13.30;;;24.30;58.00;;;;;;4228707;27;20512;-51
2023/06/17 05:13:00;;;;;;;14.98;12.10;;;24.30;58.10;;;;;;4227779;27;20054;-52
2023/06/17 05:15:44;;;;;;;16.08;12.38;;;24.20;58.10;;;;;;4232889;27;20079;-53
2023/06/17 05:18:26;;;;;;;15.25;10.88;;;24.30;58.10;;;;;;4222607;28;20397;-52
2023/06/17 05:21:07;;;;;;;14.20;11.05;;;24.20;58.10;;;;;;4206793;28;20050;-50
2023/06/17 05:23:50;;;;;;;14.50;10.55;;;24.20;58.10;;;;;;4207377;28;20379;-54
2023/06/17 05:26:31;;;;;;;16.58;11.55;;;24.20;58.20;;;;;;4214077;28;20509;-50
2023/06/17 05:29:14;;;;;;;14.88;10.98;;;24.20;58.10;;;;;;4223949;28;20397;-51
2023/06/17 05:31:57;;;;;;;19.95;12.60;;;24.20;58.10;;;;;;4222158;28;20046;-53
2023/06/17 05:34:38;;;;;;;14.35;11.73;;;24.20;58.10;;;;;;4223913;28;20402;-54
2023/06/17 05:37:19;;;;;;;17.30;11.25;;;24.20;58.10;;;;;;4222974;28;20394;-52
2023/06/17 05:40:01;;;;;;;18.00;12.52;;;24.20;58.10;;;;;;4224689;28;20046;-50
2023/06/17 05:42:42;;;;;;;15.48;11.85;;;24.20;58.10;;;;;;4195209;28;20055;-52
2023/06/17 05:45:26;;;;;;;16.05;12.73;;;24.20;58.20;;;;;;4206534;28;20067;-51
2023/06/17 05:48:06;;;;;;;16.05;12.45;;;24.20;58.20;;;;;;4189776;28;20069;-53
2023/06/17 05:50:47;;;;;;;;;;;24.20;58.20;;;;;;4190383;28;20137;-54
2023/06/17 05:53:28;;;;;;;19.02;14.40;;;24.10;58.20;;;;;;4189939;28;19978;-52
2023/06/17 05:56:10;;;;;;;19.10;13.90;;;24.10;58.10;;;;;;4209137;28;20050;-51
2023/06/17 05:58:51;;;;;;;18.10;13.10;;;24.10;58.20;;;;;;4223520;28;20096;-50
2023/06/17 06:01:41;;;;;;;16.02;12.65;;;24.10;58.20;;;;;;4207091;28;20051;-53
2023/06/17 06:04:22;;;;;;;13.35;11.50;;;24.10;58.30;;;;;;4207879;28;20050;-47
2023/06/17 06:07:03;;;;;;;15.20;11.15;;;24.10;58.30;;;;;;4222428;28;20055;-50
2023/06/17 06:09:44;;;;;;;17.98;11.07;;;24.10;58.30;;;;;;4231564;27;20091;-50
2023/06/17 06:12:26;;;;;;;13.10;10.15;;;24.10;58.20;;;;;;4243453;27;20045;-49
2023/06/17 06:15:07;;;;;;;;;;;24.10;58.20;;;;;;4223540;28;20595;-47
2023/06/17 06:17:49;;;;;;;14.05;10.48;;;24.10;58.20;;;;;;4224870;28;19931;-50
2023/06/17 06:20:30;;;;;;;15.85;10.95;;;24.10;58.20;;;;;;4212383;28;20154;-49
2023/06/17 06:23:12;;;;;;;14.27;11.18;;;24.10;58.30;;;;;;4224522;27;20077;-51
2023/06/17 06:25:52;;;;;;;16.63;10.95;;;24.10;58.40;;;;;;4210280;28;20398;-49
2023/06/17 06:28:33;;;;;;;13.93;10.52;;;24.10;58.40;;;;;;4215795;27;20047;-50
2023/06/17 06:31:15;;;;;;;14.32;12.07;;;24.10;58.50;;;;;;4221598;28;20078;-53
2023/06/17 06:33:57;;;;;;;17.17;11.63;;;24.10;58.50;;;;;;4198042;28;20513;-51
2023/06/17 06:36:38;;;;;;;14.02;11.45;;;24.10;58.50;;;;;;4209788;28;20177;-49
2023/06/17 06:39:20;;;;;;;16.27;11.07;;;24.10;58.40;;;;;;4210167;28;20039;-51
2023/06/17 06:42:01;;;;;;;13.60;11.30;;;24.10;58.50;;;;;;4210330;28;20055;-52
2023/06/17 06:45:03;;;;;;;14.70;10.57;;;24.10;58.50;;;;;;4226229;27;20211;-52
2023/06/17 06:47:44;;;;;;;;;;;24.10;58.40;;;;;;4209667;28;20055;-50
2023/06/17 06:50:27;;;;;;;15.85;11.48;;;24.10;58.40;;;;;;4208661;28;20057;-58
2023/06/17 06:53:10;;;;;;;14.93;11.82;;;24.10;58.30;;;;;;4207900;28;20062;-58
2023/06/17 06:55:53;;;;;;;;;;;24.10;58.30;;;;;;4216024;27;20131;-58
2023/06/17 06:58:35;;;;;;;14.90;10.90;;;24.10;58.20;;;;;;4221553;28;20010;-52
2023/06/17 07:01:17;;;;;;;;;;;24.10;58.20;;;;;;4204669;28;20047;-50
2023/06/17 07:03:58;;;;;;;;;;;24.10;58.20;;;;;;4226221;28;20053;-58
2023/06/17 07:06:41;;;;;;;;;;;24.10;58.10;;;;;;4226204;27;20289;-58
2023/06/17 07:09:26;;;;;;;15.48;10.77;;;24.10;58.20;;;;;;4221303;27;20056;-51
2023/06/17 07:12:08;;;;;;;18.23;10.48;;;24.10;58.20;;;;;;4212452;27;20505;-54
2023/06/17 07:14:51;;;;;;;12.07;10.40;;;24.10;58.40;;;;;;4215185;28;20047;-50
2023/06/17 07:17:33;;;;;;;13.35;9.77;;;24.10;58.50;;;;;;4211309;27;20050;-60
2023/06/17 07:20:15;;;;;;;11.77;9.63;;;24.10;58.50;;;;;;4242975;27;20052;-59
2023/06/17 07:22:58;;;;;;;12.82;10.43;;;24.10;58.50;;;;;;4242709;27;20054;-60
2023/06/17 07:25:39;;;;;;;15.07;10.82;;;24.10;58.40;;;;;;4242246;27;20049;-60
2023/06/17 07:28:20;;;;;;;14.10;11.23;;;24.10;58.30;;;;;;4209009;28;20189;-53
2023/06/17 07:31:01;;;;;;;17.95;10.20;;;24.10;58.20;;;;;;4208714;28;20100;-50
2023/06/17 07:33:43;;;;;;;13.95;10.20;;;24.10;58.20;;;;;;4220448;28;20816;-60
2023/06/17 07:36:24;;;;;;;;;;;24.20;59.00;;;;;;4209040;28;20101;-60
2023/06/17 07:39:06;;;;;;;12.88;9.98;;;24.20;58.20;;;;;;4209732;28;19930;-60
2023/06/17 07:41:47;;;;;;;16.52;11.23;;;24.30;58.30;;;;;;4225241;27;20178;-60
2023/06/17 07:44:28;;;;;;;14.32;10.75;;;24.30;58.40;;;;;;4209710;28;20272;-60
2023/06/17 07:47:09;;;;;;;13.48;10.38;;;24.30;58.30;;;;;;4209684;28;20055;-52
2023/06/17 07:49:50;;;;;;;14.20;11.05;;;24.30;58.10;;;;;;4208813;28;20047;-51
2023/06/17 07:52:32;;;;;;;13.32;10.27;;;24.40;58.20;;;;;;4209674;28;20047;-53
2023/06/17 07:55:14;;;;;;;15.80;10.88;;;24.40;58.00;;;;;;4222719;28;20120;-51
2023/06/17 07:57:55;;;;;;;13.88;9.50;;;24.50;58.20;;;;;;4225120;28;20123;-52
2023/06/17 08:00:36;;;;;;;10.90;9.60;;;24.50;58.80;;;;;;4209699;28;20121;-55
2023/06/17 08:03:17;;;;;;;12.70;9.55;;;24.50;58.00;;;;;;4211069;28;20058;-51
2023/06/17 08:05:58;;;;;;;12.50;9.82;;;24.50;58.00;;;;;;4226235;27;20051;-59
2023/06/17 08:08:39;;;;;;;13.93;10.30;;;24.60;58.00;;;;;;4225366;28;20149;-60
2023/06/17 08:11:21;;;;;;;12.25;9.57;;;24.60;58.00;;;;;;4209111;28;20120;-60
2023/06/17 08:14:02;;;;;;;12.82;10.13;;;24.60;58.00;;;;;;4209495;28;20509;-60
2023/06/17 08:16:43;;;;;;;11.05;9.38;;;24.60;58.00;;;;;;4223794;28;20050;-60
2023/06/17 08:19:24;;;;;;;12.80;9.43;;;24.70;57.90;;;;;;4232806;27;20095;-60
2023/06/17 08:22:06;;;;;;;12.55;10.82;;;24.70;57.80;;;;;;4228329;27;20172;-60
2023/06/17 08:24:47;;;;;;;14.43;10.07;;;24.70;57.70;;;;;;4209034;28;20506;-60
2023/06/17 08:27:29;;;;;;;13.00;9.98;;;24.80;57.70;;;;;;4219825;28;20046;-60
2023/06/17 08:30:13;;;;;;;12.23;9.90;;;24.80;57.70;;;;;;4238242;27;20042;-50
2023/06/17 08:32:53;;;;;;;13.70;9.90;;;24.70;57.70;;;;;;4228615;27;20120;-60
2023/06/17 08:35:34;;;;;;;13.35;9.77;;;24.80;57.80;;;;;;4210986;28;20506;-61
2023/06/17 08:38:16;;;;;;;;;;;24.80;57.80;;;;;;4211361;28;20067;-60
2023/06/17 08:40:57;;;;;;;10.48;9.32;;;24.80;58.50;;;;;;4207344;28;20042;-60
2023/06/17 08:43:40;;;;;;;12.93;10.05;;;24.90;57.60;;;;;;4209140;28;20144;-60
2023/06/17 08:46:23;;;;;;;14.40;10.23;;;24.90;57.60;;;;;;4208887;28;20181;-60
2023/06/17 08:49:04;;;;;;;14.07;10.52;;;24.90;57.60;;;;;;4213286;28;20607;-60
2023/06/17 08:51:46;;;;;;;;;;;24.90;57.70;;;;;;4225752;28;20055;-60
2023/06/17 08:54:28;;;;;;;14.60;9.52;;;24.90;57.50;;;;;;4207655;28;20008;-60
2023/06/17 08:57:12;;;;;;;12.35;9.30;;;24.90;57.50;;;;;;4208841;28;20125;-60
2023/06/17 08:59:55;;;;;;;11.02;9.15;;;24.90;57.40;;;;;;4217004;28;20055;-51
2023/06/17 09:02:37;;;;;;;14.15;10.02;;;25.00;58.30;;;;;;4224280;28;20092;-60
2023/06/17 09:05:18;;;;;;;11.50;9.38;;;25.00;57.60;;;;;;4208985;28;20189;-53
2023/06/17 09:08:00;;;;;;;13.70;10.27;;;25.00;57.60;;;;;;4208659;28;20512;-51
2023/06/17 09:10:44;;;;;;;12.48;9.13;;;25.00;57.60;;;;;;4207534;28;20055;-49
2023/06/17 09:13:26;;;;;;;11.10;8.90;;;25.00;57.50;;;;;;4210036;28;20054;-53
2023/06/17 09:16:08;;;;;;;14.75;9.38;;;25.00;57.30;;;;;;4219192;28;20090;-61
2023/06/17 09:18:53;;;;;;;15.07;9.10;;;25.10;57.40;;;;;;4224780;28;20151;-53
2023/06/17 09:21:36;;;;;;;10.63;8.75;;;25.10;57.40;;;;;;4208300;28;20055;-51
2023/06/17 09:24:17;;;;;;;11.00;9.10;;;25.10;57.60;;;;;;4208317;28;20038;-54
2023/06/17 09:26:58;;;;;;;10.77;9.10;;;25.10;57.40;;;;;;4221478;28;20405;-50
2023/06/17 09:29:40;;;;;;;12.85;8.50;;;25.20;57.30;;;;;;4190345;28;20051;-61
2023/06/17 09:32:23;;;;;;;13.88;10.13;;;25.20;57.30;;;;;;4191415;28;20047;-61
2023/06/17 09:35:05;;;;;;;15.35;9.32;;;25.20;57.50;;;;;;4190792;28;20055;-61
2023/06/17 09:37:50;;;;;;;11.77;9.20;;;25.30;57.60;;;;;;4214155;27;20070;-61
2023/06/17 09:40:42;;;;;;;12.00;9.13;;;25.30;57.60;;;;;;4231807;27;20192;-60
2023/06/17 09:43:25;;;;;;;12.55;9.05;;;25.30;57.30;;;;;;4229697;27;20058;-60
2023/06/17 09:46:08;;;;;;;17.02;8.52;;;25.30;57.40;;;;;;4216173;27;20371;-61
2023/06/17 09:48:51;;;;;;;;;;;25.30;57.50;;;;;;4233167;27;20172;-60
2023/06/17 09:51:36;;;;;;;14.63;9.48;;;25.30;57.50;;;;;;4237563;27;20285;-50
2023/06/17 09:54:18;;;;;;;14.93;9.38;;;25.40;57.60;;;;;;4233043;27;20159;-49
2023/06/17 09:57:02;;;;;;;12.93;8.82;;;25.30;57.60;;;;;;4232633;27;20054;-53
2023/06/17 09:59:43;;;;;;;9.82;8.60;;;25.40;57.60;;;;;;4237046;27;20053;-51
2023/06/17 10:02:25;;;;;;;12.85;7.90;;;25.40;57.70;;;;;;4226749;27;20062;-49
2023/06/17 10:05:11;;;;;;;;;;;25.40;58.20;;;;;;4226091;27;20112;-50
2023/06/17 10:07:53;;;;;;;12.15;8.65;;;25.50;58.50;;;;;;4218694;28;19930;-48
2023/06/17 10:10:34;;;;;;;14.43;8.35;;;25.50;58.50;;;;;;4224761;27;20162;-53
2023/06/17 10:13:20;;;;;;;10.23;8.45;;;25.50;58.50;;;;;;4225262;27;20054;-50
2023/06/17 10:16:02;;;;;;;13.13;9.68;;;25.60;58.60;;;;;;4223834;27;20695;-51
2023/06/17 10:18:48;;;;;;;14.10;9.20;;;25.60;58.60;;;;;;4225253;27;20112;-52
2023/06/17 10:21:33;;;;;;;13.95;9.40;;;25.60;58.50;;;;;;4231998;27;20050;-51
2023/06/17 10:24:15;;;;;;;12.45;9.75;;;25.70;58.60;;;;;;4234067;27;20057;-49
2023/06/17 10:27:03;;;;;;;13.68;9.18;;;25.70;58.50;;;;;;4234403;27;20058;-59
2023/06/17 10:29:49;;;;;;;13.02;8.77;;;25.70;58.90;;;;;;4235105;27;20644;-59
2023/06/17 10:32:30;;;;;;;10.60;8.35;;;25.70;58.00;;;;;;4232974;27;20054;-59
2023/06/17 10:35:12;;;;;;;13.52;9.73;;;25.80;57.90;;;;;;4230463;27;20552;-59
2023/06/17 10:37:55;;;;;;;13.82;9.07;;;25.80;57.60;;;;;;4228203;27;20054;-54
2023/06/17 10:40:40;;;;;;;14.45;9.45;;;25.80;57.60;;;;;;4225191;27;20743;-49
2023/06/17 10:43:22;;;;;;;12.65;10.25;;;25.80;57.60;;;;;;4226050;27;20055;-52
2023/06/17 10:46:02;;;;;;;10.73;9.05;;;25.80;57.60;;;;;;4229057;27;20105;-54
2023/06/17 10:48:43;;;;;;;14.90;9.25;;;25.90;57.70;;;;;;4227878;27;20050;-51
2023/06/17 10:51:25;;;;;;;12.93;8.95;;;25.90;57.70;;;;;;4211047;28;20046;-59
2023/06/17 10:54:26;;;;;;;;;;;25.90;57.70;;;;;;4239527;27;20524;-54
2023/06/17 10:57:07;;;;;;;11.97;9.30;;;25.90;57.80;;;;;;4224114;27;20095;-61
2023/06/17 10:59:49;;;;;;;15.48;8.98;;;25.90;57.70;;;;;;4224732;27;20505;-59
2023/06/17 11:02:31;;;;;;;11.02;9.25;;;25.90;57.70;;;;;;4232009;27;20091;-59
2023/06/17 11:05:16;;;;;;;12.05;8.07;;;25.90;57.70;;;;;;4228389;27;20409;-54
2023/06/17 11:07:56;;;;;;;11.40;8.07;;;25.90;57.60;;;;;;4226730;27;20093;-59
2023/06/17 11:10:38;;;;;;;11.38;8.23;;;25.90;57.30;;;;;;4236077;27;20480;-59
2023/06/17 11:13:21;;;;;;;9.55;7.30;;;25.90;56.90;;;;;;4237393;27;20155;-60
2023/06/17 11:16:02;;;;;;;10.27;8.27;;;26.00;57.00;;;;;;4221642;27;20147;-59
2023/06/17 11:18:45;;;;;;;11.07;8.00;;;26.00;57.10;;;;;;4222017;27;20066;-60
2023/06/17 11:21:28;;;;;;;12.93;8.00;;;26.00;56.90;;;;;;4223774;27;20192;-59
2023/06/17 11:24:12;;;;;;;10.05;7.60;;;26.00;56.80;;;;;;4215443;27;20184;-59
2023/06/17 11:26:57;;;;;;;10.73;8.10;;;26.00;56.80;;;;;;4220803;27;20050;-59
2023/06/17 11:29:42;;;;;;;12.00;8.43;;;26.10;57.00;;;;;;4206376;27;20107;-50
2023/06/17 11:32:23;;;;;;;12.30;9.00;;;26.10;56.70;;;;;;4222088;27;20058;-54
2023/06/17 11:35:05;;;;;;;12.23;8.63;;;26.10;56.60;;;;;;4237862;27;20054;-54
2023/06/17 11:37:48;;;;;;;12.50;7.53;;;26.10;56.60;;;;;;4224170;27;20062;-59
2023/06/17 11:40:28;;;;;;;10.85;7.25;;;26.10;56.60;;;;;;4220769;27;20063;-59
2023/06/17 11:43:11;;;;;;;7.50;6.35;;;26.10;56.50;;;;;;4232894;27;20103;-54
2023/06/17 11:45:57;;;;;;;10.40;7.38;;;26.10;56.40;;;;;;4228087;27;20058;-51
2023/06/17 11:48:50;;;;;;;11.00;8.25;;;26.20;56.40;;;;;;4223259;27;20132;-51
2023/06/17 11:51:50;;;;;;;11.95;8.10;;;26.20;56.30;;;;;;4215219;27;20050;-58
2023/06/17 11:54:32;;;;;;;9.05;7.22;;;26.20;56.20;;;;;;4237781;27;20086;-58
2023/06/17 11:57:17;;;;;;;8.77;7.05;;;26.20;56.20;;;;;;4231894;27;20062;-58
2023/06/17 12:00:05;;;;;;;8.45;6.43;;;26.20;55.90;;;;;;4224354;27;20045;-59
2023/06/17 12:02:55;;;;;;;10.07;7.07;;;26.20;55.80;;;;;;4232992;27;20192;-59
2023/06/17 12:05:37;;;;;;;12.20;7.55;;;26.20;55.70;;;;;;4227478;27;20166;-52
2023/06/17 12:08:18;;;;;;;10.65;8.27;;;26.20;55.60;;;;;;4224079;28;20062;-49
2023/06/17 12:10:59;;;;;;;11.75;7.53;;;26.30;55.70;;;;;;4221478;27;20051;-52
2023/06/17 12:13:40;;;;;;;8.38;5.80;;;26.30;55.60;;;;;;4227776;27;20597;-53
2023/06/17 12:16:30;;;;;;;7.30;6.53;;;26.30;55.60;;;;;;4222842;27;20157;-54
2023/06/17 12:19:20;;;;;;;10.60;7.60;;;26.30;55.50;;;;;;4223714;27;20062;-59
2023/06/17 12:22:01;;;;;;;9.02;7.05;;;26.30;55.30;;;;;;4224418;27;20042;-60
2023/06/17 12:24:42;;;;;;;9.18;5.90;;;26.30;55.30;;;;;;4227226;27;20055;-59
2023/06/17 12:27:30;;;;;;;;;;;26.30;55.30;;;;;;4242985;27;20046;-60
2023/06/17 12:30:12;;;;;;;9.32;7.00;;;26.40;55.50;;;;;;4242557;27;20060;-58
2023/06/17 12:32:55;;;;;;;11.10;7.60;;;26.40;55.60;;;;;;4209299;28;20055;-56
2023/06/17 12:35:36;;;;;;;8.93;6.65;;;26.40;55.50;;;;;;4211756;28;20502;-56
2023/06/17 12:38:17;;;;;;;7.97;6.50;;;26.40;55.60;;;;;;4224225;27;20124;-56
2023/06/17 12:40:59;;;;;;;;;;;26.40;55.50;;;;;;4220038;28;20478;-56
2023/06/17 12:43:41;;;;;;;15.30;6.35;;;26.40;55.50;;;;;;4209021;28;19931;-56
2023/06/17 12:46:23;;;;;;;8.85;6.45;;;26.40;55.40;;;;;;4208876;28;20046;-55
2023/06/17 12:49:07;;;;;;;9.38;6.13;;;26.40;55.40;;;;;;4221130;28;20406;-54
2023/06/17 12:51:48;;;;;;;13.13;6.75;;;26.40;55.30;;;;;;4225391;27;20058;-56
2023/06/17 12:54:29;;;;;;;7.07;6.32;;;26.50;55.30;;;;;;4205510;28;20063;-56
2023/06/17 12:57:10;;;;;;;;;;;26.50;55.20;;;;;;4209615;28;20062;-56
2023/06/17 12:59:53;;;;;;;7.95;6.45;;;26.50;55.20;;;;;;4208775;28;19926;-54
2023/06/17 13:02:35;;;;;;;8.95;6.57;;;26.50;55.10;;;;;;4232932;27;20049;-55
2023/06/17 13:05:18;;;;;;;10.70;6.57;;;26.50;55.10;;;;;;4242453;27;20487;-59
2023/06/17 13:07:59;;;;;;;8.85;5.72;;;26.50;55.00;;;;;;4242481;27;20578;-59
2023/06/17 13:10:40;;;;;;;8.82;6.05;;;26.50;54.90;;;;;;4242801;27;20096;-59
2023/06/17 13:13:21;;;;;;;9.95;6.50;;;26.50;54.80;;;;;;4205989;28;20553;-59
2023/06/17 13:16:03;;;;;;;11.52;6.43;;;26.50;54.60;;;;;;4207533;28;20174;-59
2023/06/17 13:18:44;;;;;;;8.70;6.18;;;26.60;54.60;;;;;;4210211;28;20413;-59
2023/06/17 13:21:26;;;;;;;9.85;6.43;;;26.60;54.40;;;;;;4216737;27;20058;-59
2023/06/17 13:24:08;;;;;;;7.70;5.55;;;26.60;54.40;;;;;;4229061;28;20115;-59
2023/06/17 13:26:49;;;;;;;9.05;6.50;;;26.60;54.40;;;;;;4213296;28;20120;-59
2023/06/17 13:29:30;;;;;;;7.25;5.65;;;26.60;54.40;;;;;;4209838;28;20047;-59
2023/06/17 13:32:11;;;;;;;;;;;26.60;54.30;;;;;;4228917;27;20157;-59
2023/06/17 13:34:53;;;;;;;8.95;6.10;;;26.60;54.30;;;;;;4229050;28;19930;-60
2023/06/17 13:37:35;;;;;;;7.38;5.38;;;26.60;53.90;;;;;;4228765;27;20096;-60
2023/06/17 13:40:16;;;;;;;6.38;4.78;;;26.60;53.30;;;;;;4228938;27;20132;-59
2023/06/17 13:42:57;;;;;;;6.43;4.70;;;26.60;53.00;;;;;;4213534;28;20527;-60
2023/06/17 13:45:38;;;;;;;8.10;5.45;;;26.60;52.80;;;;;;4220865;27;20402;-59
2023/06/17 13:48:19;;;;;;;7.05;5.25;;;26.60;53.70;;;;;;4228271;28;20055;-59
2023/06/17 13:51:00;;;;;;;;;;;26.60;53.10;;;;;;4228448;27;20085;-59
2023/06/17 13:53:42;;;;;;;6.53;5.57;;;26.60;52.90;;;;;;4226932;27;19931;-60
2023/06/17 13:56:24;;;;;;;6.63;5.07;;;26.60;53.20;;;;;;4224666;28;20055;-59
2023/06/17 13:59:05;;;;;;;5.90;5.30;;;26.60;53.90;;;;;;4213155;28;20051;-60
2023/06/17 14:01:46;;;;;;;9.93;5.93;;;26.60;53.00;;;;;;4225740;27;20060;-59